createdAt,value
2024-02-02T00:01:12.513Z,3.40
2024-02-02T00:06:16.985Z,3.57
2024-02-02T00:11:20.159Z,3.42
2024-02-02T00:16:23.651Z,3.30
2024-02-02T00:21:28.232Z,3.63
2024-02-02T00:26:31.242Z,3.34
2024-02-02T00:31:34.263Z,3.43
2024-02-02T00:36:38.639Z,3.54
2024-02-02T00:41:41.637Z,3.45
2024-02-02T00:46:44.626Z,3.47
2024-02-02T00:51:49.166Z,3.46
2024-02-02T00:56:52.282Z,3.52
2024-02-02T01:01:55.302Z,3.43
2024-02-02T01:06:59.754Z,3.90
2024-02-02T01:12:03.259Z,3.55
2024-02-02T01:17:06.678Z,3.43
2024-02-02T01:22:11.278Z,3.63
2024-02-02T01:27:14.952Z,3.77
2024-02-02T01:32:18.580Z,3.86
2024-02-02T01:37:22.925Z,3.93
2024-02-02T01:42:26.233Z,3.84
2024-02-02T01:47:29.397Z,3.93
2024-02-02T01:52:34.094Z,3.91
2024-02-02T01:57:37.478Z,3.78
2024-02-02T02:02:40.520Z,3.72
2024-02-02T02:07:45.575Z,4.02
2024-02-02T02:12:51.726Z,3.84
2024-02-02T02:17:55.541Z,3.77
2024-02-02T02:23:00.189Z,3.82
2024-02-02T02:28:03.298Z,3.50
2024-02-02T02:33:07.375Z,3.66
2024-02-02T02:38:11.782Z,3.54
2024-02-02T02:43:14.769Z,3.46
2024-02-02T02:48:17.901Z,3.60
2024-02-02T02:53:22.397Z,3.47
2024-02-02T02:58:25.583Z,3.50
2024-02-02T03:03:28.866Z,3.43
2024-02-02T03:08:33.265Z,3.30
2024-02-02T03:13:36.509Z,3.47
2024-02-02T03:18:40.592Z,3.45
2024-02-02T03:23:46.538Z,3.68
2024-02-02T03:28:49.620Z,3.65
2024-02-02T03:33:52.773Z,3.90
2024-02-02T03:38:57.261Z,4.27
2024-02-02T03:44:00.361Z,4.17
2024-02-02T03:49:03.601Z,4.04
2024-02-02T03:54:08.201Z,3.97
2024-02-02T03:59:12.082Z,4.04
2024-02-02T04:04:15.395Z,3.91
2024-02-02T04:09:19.943Z,4.17
2024-02-02T04:14:23.525Z,4.27
2024-02-02T04:19:26.653Z,3.72
2024-02-02T04:24:31.265Z,3.75
2024-02-02T04:29:34.427Z,4.35
2024-02-02T04:34:37.709Z,4.04
2024-02-02T04:39:42.252Z,4.02
2024-02-02T04:44:45.249Z,3.95
2024-02-02T04:49:48.347Z,4.12
2024-02-02T04:54:55.060Z,3.76
2024-02-02T04:59:58.083Z,3.95
2024-02-02T05:05:01.110Z,3.90
2024-02-02T05:10:06.993Z,4.19
2024-02-02T05:15:10.844Z,4.05
2024-02-02T05:20:14.128Z,3.20
2024-02-02T05:25:18.537Z,3.44
2024-02-02T05:30:22.772Z,3.57
2024-02-02T05:35:25.863Z,3.26
2024-02-02T05:40:32.884Z,3.34
2024-02-02T05:45:37.308Z,3.49
2024-02-02T05:50:40.386Z,3.33
2024-02-02T05:55:47.338Z,3.36
2024-02-02T06:00:50.684Z,3.87
2024-02-02T06:05:53.862Z,3.68
2024-02-02T06:10:58.324Z,3.46
2024-02-02T06:16:01.322Z,3.52
2024-02-02T06:21:04.650Z,3.84
2024-02-02T06:26:09.115Z,4.04
2024-02-02T06:31:12.168Z,3.84
2024-02-02T06:36:15.227Z,3.74
2024-02-02T06:41:19.578Z,3.59
2024-02-02T06:46:22.646Z,3.50
2024-02-02T06:51:25.758Z,3.77
2024-02-02T06:56:38.625Z,3.69
2024-02-02T07:01:41.744Z,4.22
2024-02-02T07:06:45.532Z,3.82
2024-02-02T07:11:59.502Z,4.01
2024-02-02T07:17:02.975Z,3.99
2024-02-02T07:22:29.588Z,4.13
2024-02-02T07:27:54.160Z,3.98
2024-02-02T07:32:57.570Z,4.02
2024-02-02T07:38:06.671Z,3.99
2024-02-02T07:43:11.087Z,4.42
2024-02-02T07:48:14.177Z,4.28
2024-02-02T07:53:17.388Z,3.99
2024-02-02T07:58:22.754Z,4.12
2024-02-02T08:03:28.568Z,4.17
2024-02-02T08:08:33.513Z,4.18
2024-02-02T08:13:38.331Z,4.15
2024-02-02T08:18:42.321Z,4.14
2024-02-02T08:23:45.586Z,4.41
2024-02-02T08:28:54.771Z,4.46
2024-02-02T08:33:58.660Z,4.46
2024-02-02T08:39:01.709Z,4.57
2024-02-02T08:44:09.259Z,4.44
2024-02-02T08:49:34.254Z,4.66
2024-02-02T08:54:47.547Z,4.37
2024-02-02T08:59:53.986Z,4.51
2024-02-02T09:05:07.636Z,4.65
2024-02-02T09:10:44.733Z,4.51
2024-02-02T09:15:50.237Z,4.26
2024-02-02T09:20:53.827Z,4.52
2024-02-02T09:25:57.103Z,4.39
2024-02-02T09:31:02.741Z,4.57
2024-02-02T09:36:07.934Z,4.56
2024-02-02T09:41:38.504Z,4.31
2024-02-02T09:46:51.003Z,4.82
2024-02-02T09:51:59.349Z,4.37
2024-02-02T09:57:09.985Z,4.70
2024-02-02T10:02:28.922Z,4.72
2024-02-02T10:07:44.360Z,4.73
2024-02-02T10:12:57.867Z,4.72
2024-02-02T10:18:26.490Z,4.99
2024-02-02T10:23:58.573Z,4.92
2024-02-02T10:29:14.483Z,4.95
2024-02-02T10:34:32.135Z,5.15
2024-02-02T10:39:50.567Z,4.77
2024-02-02T10:45:05.173Z,5.17
2024-02-02T10:50:21.737Z,5.18
2024-02-02T10:55:41.373Z,4.90
2024-02-02T11:00:53.326Z,5.43
2024-02-02T11:06:09.566Z,5.15
2024-02-02T11:11:15.325Z,5.28
2024-02-02T11:16:44.204Z,5.26
2024-02-02T11:22:08.463Z,5.26
2024-02-02T11:27:17.384Z,5.18
2024-02-02T11:32:40.407Z,5.01
2024-02-02T11:37:57.650Z,5.23
2024-02-02T11:43:01.300Z,5.12
2024-02-02T11:48:06.254Z,5.28
2024-02-02T11:53:17.035Z,5.22
2024-02-02T11:58:21.423Z,5.38
2024-02-02T12:03:32.249Z,5.05
2024-02-02T12:08:43.838Z,5.35
2024-02-02T12:13:49.117Z,5.47
2024-02-02T12:18:52.278Z,5.65
2024-02-02T12:23:56.839Z,6.15
2024-02-02T12:28:59.904Z,6.49
2024-02-02T12:34:03.448Z,6.73
2024-02-02T12:39:08.154Z,6.78
2024-02-02T12:44:11.344Z,6.48
2024-02-02T12:49:14.644Z,6.25
2024-02-02T12:54:20.247Z,6.09
2024-02-02T12:59:25.068Z,5.70
2024-02-02T13:04:28.285Z,6.44
2024-02-02T13:09:34.080Z,6.16
2024-02-02T13:14:37.990Z,6.35
2024-02-02T13:19:43.914Z,6.25
2024-02-02T13:24:51.441Z,6.45
2024-02-02T13:29:57.873Z,6.52
2024-02-02T13:35:02.066Z,6.09
2024-02-02T13:40:10.518Z,5.83
2024-02-02T13:45:16.305Z,6.26
2024-02-02T13:50:21.002Z,6.03
2024-02-02T13:55:30.183Z,5.82
2024-02-02T14:00:33.893Z,6.37
2024-02-02T14:05:37.614Z,6.21
2024-02-02T14:10:46.701Z,5.88
2024-02-02T14:15:52.019Z,5.95
2024-02-02T14:20:55.074Z,6.09
2024-02-02T14:26:10.270Z,5.64
2024-02-02T14:31:13.236Z,6.03
2024-02-02T14:36:16.525Z,5.92
2024-02-02T14:41:20.962Z,5.88
2024-02-02T14:46:23.996Z,6.34
2024-02-02T14:51:26.959Z,5.91
2024-02-02T14:56:32.228Z,5.87
2024-02-02T15:01:35.331Z,5.89
2024-02-02T15:06:40.139Z,6.20
2024-02-02T15:11:45.561Z,6.36
2024-02-02T15:16:48.737Z,5.72
2024-02-02T15:21:53.600Z,6.17
2024-02-02T15:26:58.222Z,5.67
2024-02-02T15:32:01.516Z,5.48
2024-02-02T15:37:04.729Z,5.71
2024-02-02T15:42:09.358Z,5.79
2024-02-02T15:47:12.472Z,5.93
2024-02-02T15:52:15.477Z,5.80
2024-02-02T15:57:19.835Z,5.78
2024-02-02T16:02:22.925Z,5.78
2024-02-02T16:07:27.124Z,5.28
2024-02-02T16:12:32.949Z,5.25
2024-02-02T16:17:38.115Z,5.63
2024-02-02T16:22:42.430Z,5.29
2024-02-02T16:27:46.861Z,5.27
2024-02-02T16:32:50.183Z,5.54
2024-02-02T16:37:53.281Z,5.36
2024-02-02T16:42:57.684Z,5.41
2024-02-02T16:48:00.888Z,5.47
2024-02-02T16:53:04.265Z,5.68
2024-02-02T16:58:09.329Z,5.57
2024-02-02T17:03:13.136Z,5.60
2024-02-02T17:08:16.484Z,5.43
2024-02-02T17:13:22.420Z,5.66
2024-02-02T17:18:25.587Z,5.70
2024-02-02T17:23:29.044Z,5.91
2024-02-02T17:28:33.471Z,5.85
2024-02-02T17:33:36.689Z,5.84
2024-02-02T17:38:41.488Z,5.83
2024-02-02T17:43:48.153Z,5.66
2024-02-02T17:48:51.228Z,5.71
2024-02-02T17:53:55.575Z,5.78
2024-02-02T17:58:59.975Z,5.59
2024-02-02T18:04:03.184Z,5.83
2024-02-02T18:09:07.352Z,5.80
2024-02-02T18:14:11.736Z,5.75
2024-02-02T18:19:14.905Z,5.66
2024-02-02T18:24:18.572Z,5.67
2024-02-02T18:29:23.002Z,5.66
2024-02-02T18:34:26.102Z,5.59
2024-02-02T18:39:29.287Z,5.71
2024-02-02T18:44:33.778Z,5.68
2024-02-02T18:49:36.859Z,6.15
2024-02-02T18:54:40.409Z,5.99
2024-02-02T18:59:45.045Z,5.85
2024-02-02T19:04:48.153Z,6.26
2024-02-02T19:09:51.268Z,6.16
2024-02-02T19:14:58.914Z,6.02
2024-02-02T19:20:02.668Z,5.94
2024-02-02T19:25:06.652Z,6.10
2024-02-02T19:30:12.761Z,6.18
2024-02-02T19:35:15.878Z,6.17
2024-02-02T19:40:18.877Z,6.39
2024-02-02T19:45:23.334Z,6.50
2024-02-02T19:50:26.476Z,6.49
2024-02-02T19:55:31.159Z,6.56
2024-02-02T20:00:35.615Z,6.60
2024-02-02T20:05:38.741Z,6.82
2024-02-02T20:10:43.565Z,6.34
2024-02-02T20:15:48.338Z,6.33
2024-02-02T20:20:54.737Z,6.63
2024-02-02T20:25:57.870Z,6.77
2024-02-02T20:31:03.876Z,6.76
2024-02-02T20:36:07.742Z,6.76
2024-02-02T20:41:11.007Z,6.45
2024-02-02T20:46:15.567Z,6.60
2024-02-02T20:51:19.143Z,6.60
2024-02-02T20:56:22.265Z,6.48
2024-02-02T21:01:26.857Z,6.54
2024-02-02T21:06:30.012Z,6.55
2024-02-02T21:11:33.324Z,6.41
2024-02-02T21:16:37.933Z,6.68
2024-02-02T21:21:42.140Z,6.46
2024-02-02T21:26:45.126Z,6.54
2024-02-02T21:31:49.894Z,6.42
2024-02-02T21:36:52.958Z,6.58
2024-02-02T21:41:56.015Z,6.87
2024-02-02T21:47:00.751Z,7.02
2024-02-02T21:52:03.805Z,7.04
2024-02-02T21:57:07.110Z,6.88
2024-02-02T22:02:11.575Z,6.83
2024-02-02T22:07:14.650Z,6.52
2024-02-02T22:12:17.808Z,6.68
2024-02-02T22:17:22.819Z,7.36
2024-02-02T22:22:25.879Z,6.98
2024-02-02T22:27:31.462Z,6.66
2024-02-02T22:32:38.752Z,6.69
2024-02-02T22:37:45.033Z,6.82
2024-02-02T22:42:48.187Z,6.73
2024-02-02T22:47:52.638Z,6.84
2024-02-02T22:52:55.688Z,6.87
2024-02-02T22:57:58.728Z,6.96
2024-02-02T23:03:03.317Z,6.94
2024-02-02T23:08:06.942Z,7.08
2024-02-02T23:13:09.994Z,6.88
2024-02-02T23:18:14.577Z,6.98
2024-02-02T23:23:20.242Z,6.92
2024-02-02T23:28:23.388Z,6.89
2024-02-02T23:33:27.861Z,6.79
2024-02-02T23:38:30.948Z,6.85
2024-02-02T23:43:34.175Z,6.80
2024-02-02T23:48:38.880Z,7.06
2024-02-02T23:53:41.913Z,7.23
2024-02-02T23:58:45.043Z,7.20
